createdAt,value
2019-05-26T00:01:39.541Z,76.10
2019-05-26T00:04:06.658Z,76.10
2019-05-26T00:06:33.733Z,75.58
2019-05-26T00:09:00.818Z,75.58
2019-05-26T00:11:27.900Z,75.71
2019-05-26T00:13:54.991Z,75.70
2019-05-26T00:16:22.057Z,75.58
2019-05-26T00:18:49.147Z,75.53
2019-05-26T00:21:16.243Z,75.81
2019-05-26T00:23:43.351Z,75.81
2019-05-26T00:26:10.392Z,75.84
2019-05-26T00:28:37.463Z,75.68
2019-05-26T00:31:04.602Z,75.93
2019-05-26T00:33:31.701Z,76.08
2019-05-26T00:35:58.841Z,76.06
2019-05-26T00:38:25.931Z,76.06
2019-05-26T00:40:53.027Z,76.02
2019-05-26T00:43:20.116Z,76.06
2019-05-26T00:45:47.201Z,76.06
2019-05-26T00:48:14.301Z,75.69
2019-05-26T00:50:41.463Z,75.69
2019-05-26T00:53:08.568Z,76.22
2019-05-26T00:55:35.662Z,76.33
2019-05-26T00:58:02.767Z,76.35
2019-05-26T01:00:37.181Z,76.35
2019-05-26T01:03:04.259Z,76.42
2019-05-26T01:05:31.328Z,76.44
2019-05-26T01:08:06.174Z,76.53
2019-05-26T01:10:27.424Z,76.39
2019-05-26T01:12:54.536Z,76.61
2019-05-26T01:15:21.634Z,76.70
2019-05-26T01:17:48.694Z,76.85
2019-05-26T01:20:15.889Z,76.96
2019-05-26T01:22:42.979Z,76.89
2019-05-26T01:25:15.753Z,77.02
2019-05-26T01:27:42.818Z,76.86
2019-05-26T01:30:10.095Z,76.98
2019-05-26T01:32:37.179Z,77.25
2019-05-26T01:35:04.561Z,77.25
2019-05-26T01:37:31.757Z,77.48
2019-05-26T01:39:58.844Z,77.48
2019-05-26T01:42:25.919Z,77.37
2019-05-26T01:44:52.996Z,77.49
2019-05-26T01:47:20.052Z,77.53
2019-05-26T01:49:47.138Z,77.51
2019-05-26T01:52:14.224Z,78.11
2019-05-26T01:54:41.310Z,78.11
2019-05-26T01:57:08.400Z,77.64
2019-05-26T01:59:35.466Z,77.64
2019-05-26T02:02:02.507Z,77.76
2019-05-26T02:04:29.612Z,77.96
2019-05-26T02:06:56.702Z,77.91
2019-05-26T02:09:23.798Z,77.91
2019-05-26T02:11:50.869Z,77.66
2019-05-26T02:14:17.948Z,77.65
2019-05-26T02:16:45.022Z,77.65
2019-05-26T02:19:12.114Z,77.91
2019-05-26T02:21:39.200Z,77.19
2019-05-26T02:24:06.349Z,77.19
2019-05-26T02:26:33.475Z,77.46
2019-05-26T02:29:00.549Z,77.55
2019-05-26T02:31:27.645Z,77.50
2019-05-26T02:33:54.710Z,77.46
2019-05-26T02:36:21.814Z,77.54
2019-05-26T02:39:01.014Z,77.28
2019-05-26T02:41:17.883Z,77.28
2019-05-26T02:43:44.947Z,77.39
2019-05-26T02:46:12.034Z,77.34
2019-05-26T02:48:39.164Z,77.50
2019-05-26T02:51:06.218Z,77.37
2019-05-26T02:53:33.266Z,77.64
2019-05-26T02:56:00.518Z,77.33
2019-05-26T02:58:27.556Z,77.33
2019-05-26T03:00:54.616Z,77.47
2019-05-26T03:03:21.804Z,77.57
2019-05-26T03:05:49.289Z,77.51
2019-05-26T03:08:16.545Z,77.58
2019-05-26T03:10:43.727Z,77.60
2019-05-26T03:13:14.409Z,77.62
2019-05-26T03:15:43.474Z,77.70
2019-05-26T03:18:10.519Z,77.65
2019-05-26T03:20:38.689Z,77.55
2019-05-26T03:23:06.502Z,77.77
2019-05-26T03:25:34.089Z,77.77
2019-05-26T03:28:01.219Z,78.06
2019-05-26T03:30:28.314Z,78.02
2019-05-26T03:32:55.422Z,78.02
2019-05-26T03:35:22.524Z,77.68
2019-05-26T03:37:49.593Z,77.68
2019-05-26T03:40:17.971Z,77.98
2019-05-26T03:42:45.053Z,77.98
2019-05-26T03:45:33.571Z,77.51
2019-05-26T03:48:00.668Z,77.51
2019-05-26T03:50:27.717Z,77.87
2019-05-26T03:52:54.786Z,77.88
2019-05-26T03:55:21.834Z,77.92
2019-05-26T03:57:48.941Z,78.02
2019-05-26T04:00:16.020Z,77.89
2019-05-26T04:02:43.102Z,77.73
2019-05-26T04:05:10.203Z,77.73
2019-05-26T04:07:37.253Z,77.59
2019-05-26T04:10:06.216Z,77.49
2019-05-26T04:12:33.487Z,77.49
2019-05-26T04:15:00.572Z,77.64
2019-05-26T04:17:27.659Z,77.70
2019-05-26T04:19:54.727Z,77.66
2019-05-26T04:22:21.771Z,77.77
2019-05-26T04:24:48.831Z,77.55
2019-05-26T04:27:15.946Z,77.39
2019-05-26T04:29:43.091Z,77.26
2019-05-26T04:32:10.211Z,78.29
2019-05-26T04:34:37.301Z,78.29
2019-05-26T04:37:04.432Z,77.13
2019-05-26T04:39:31.512Z,76.75
2019-05-26T04:41:58.592Z,75.13
2019-05-26T04:44:25.652Z,75.13
2019-05-26T04:46:52.740Z,75.60
2019-05-26T04:49:19.804Z,75.15
2019-05-26T04:51:46.883Z,73.89
2019-05-26T04:54:13.932Z,74.70
2019-05-26T04:56:41.059Z,73.30
2019-05-26T04:59:08.138Z,73.11
2019-05-26T05:01:35.260Z,73.12
2019-05-26T05:04:02.426Z,72.16
2019-05-26T05:06:29.512Z,71.72
2019-05-26T05:08:56.600Z,71.06
2019-05-26T05:11:23.665Z,71.16
2019-05-26T05:13:50.754Z,70.42
2019-05-26T05:16:17.822Z,70.32
2019-05-26T05:18:44.910Z,70.23
2019-05-26T05:21:11.942Z,69.83
2019-05-26T05:23:39.027Z,69.51
2019-05-26T05:26:06.118Z,68.89
2019-05-26T05:28:33.217Z,69.14
2019-05-26T05:31:00.294Z,68.64
2019-05-26T05:33:27.405Z,68.71
2019-05-26T05:35:54.471Z,69.12
2019-05-26T05:38:21.527Z,68.04
2019-05-26T05:40:59.119Z,68.87
2019-05-26T05:43:17.579Z,68.73
2019-05-26T05:45:44.649Z,69.79
2019-05-26T05:48:11.758Z,70.48
2019-05-26T05:50:39.474Z,70.92
2019-05-26T05:53:06.658Z,71.46
2019-05-26T05:55:33.717Z,71.14
2019-05-26T05:58:00.789Z,70.06
2019-05-26T06:00:27.868Z,69.78
2019-05-26T06:02:55.134Z,69.66
2019-05-26T06:05:22.225Z,69.79
2019-05-26T06:07:49.253Z,69.36
2019-05-26T06:10:16.804Z,70.15
2019-05-26T06:12:43.914Z,69.92
2019-05-26T06:15:12.007Z,70.17
2019-05-26T06:17:39.463Z,69.80
2019-05-26T06:20:06.840Z,70.53
2019-05-26T06:22:33.949Z,70.03
2019-05-26T06:25:01.005Z,69.55
2019-05-26T06:27:28.076Z,69.71
2019-05-26T06:29:58.755Z,69.49
2019-05-26T06:32:24.096Z,69.79
2019-05-26T06:34:51.168Z,70.10
2019-05-26T06:37:18.260Z,70.20
2019-05-26T06:39:45.365Z,70.47
2019-05-26T06:42:13.312Z,70.41
2019-05-26T06:44:53.105Z,70.00
2019-05-26T06:47:09.521Z,70.03
2019-05-26T06:49:36.606Z,70.44
2019-05-26T06:52:03.749Z,69.98
2019-05-26T06:54:30.808Z,69.78
2019-05-26T06:56:57.951Z,69.45
2019-05-26T06:59:25.014Z,69.46
2019-05-26T07:01:52.091Z,69.12
2019-05-26T07:04:20.100Z,69.15
2019-05-26T07:06:47.207Z,69.39
2019-05-26T07:09:14.299Z,69.35
2019-05-26T07:11:55.653Z,69.53
2019-05-26T07:14:10.349Z,69.24
2019-05-26T07:16:38.851Z,68.80
2019-05-26T07:19:06.095Z,69.11
2019-05-26T07:21:33.222Z,68.69
2019-05-26T07:24:00.278Z,68.31
2019-05-26T07:26:27.351Z,68.17
2019-05-26T07:28:54.412Z,68.22
2019-05-26T07:31:21.510Z,67.22
2019-05-26T07:33:48.590Z,67.30
2019-05-26T07:36:15.686Z,67.24
2019-05-26T07:38:42.772Z,66.14
2019-05-26T07:41:09.882Z,66.73
2019-05-26T07:43:36.952Z,66.83
2019-05-26T07:46:04.036Z,65.56
2019-05-26T07:48:35.373Z,64.24
2019-05-26T07:51:00.128Z,64.51
2019-05-26T07:53:27.214Z,64.49
2019-05-26T07:55:54.327Z,63.94
2019-05-26T07:58:21.417Z,64.15
2019-05-26T08:00:48.508Z,63.73
2019-05-26T08:03:15.603Z,63.79
2019-05-26T08:05:42.686Z,63.27
2019-05-26T08:08:13.035Z,62.67
2019-05-26T08:10:38.814Z,62.27
2019-05-26T08:13:05.869Z,62.79
2019-05-26T08:15:32.934Z,63.00
2019-05-26T08:18:00.058Z,62.78
2019-05-26T08:20:27.131Z,61.51
2019-05-26T08:22:54.241Z,60.97
2019-05-26T08:25:21.349Z,60.84
2019-05-26T08:27:48.448Z,60.19
2019-05-26T08:30:15.537Z,60.82
2019-05-26T08:32:42.627Z,61.27
2019-05-26T08:35:09.929Z,60.98
2019-05-26T08:37:36.999Z,60.52
2019-05-26T08:40:19.147Z,60.63
2019-05-26T08:42:47.218Z,59.85
2019-05-26T08:45:14.377Z,59.21
2019-05-26T08:47:41.580Z,58.69
2019-05-26T08:50:08.675Z,58.32
2019-05-26T08:52:35.756Z,57.22
2019-05-26T08:55:02.941Z,57.90
2019-05-26T08:57:30.052Z,56.52
2019-05-26T08:59:57.101Z,56.88
2019-05-26T09:02:24.195Z,55.79
2019-05-26T09:04:51.322Z,56.10
2019-05-26T09:07:18.452Z,54.84
2019-05-26T09:09:45.548Z,54.59
2019-05-26T09:12:12.731Z,54.57
2019-05-26T09:14:39.839Z,53.88
2019-05-26T09:17:06.929Z,54.02
2019-05-26T09:19:33.994Z,53.50
2019-05-26T09:22:01.079Z,53.32
2019-05-26T09:24:28.128Z,52.71
2019-05-26T09:26:55.250Z,52.48
2019-05-26T09:29:22.335Z,52.51
2019-05-26T09:31:49.433Z,52.76
2019-05-26T09:34:16.501Z,52.11
2019-05-26T09:36:43.576Z,52.26
2019-05-26T09:39:10.658Z,51.65
2019-05-26T09:41:37.841Z,50.49
2019-05-26T09:44:05.007Z,49.78
2019-05-26T09:46:32.142Z,49.86
2019-05-26T09:49:01.024Z,49.36
2019-05-26T09:51:28.200Z,49.32
2019-05-26T09:54:01.817Z,49.72
2019-05-26T09:56:24.236Z,48.83
2019-05-26T09:58:51.356Z,48.51
2019-05-26T10:01:18.459Z,48.18
2019-05-26T10:03:45.626Z,48.12
2019-05-26T10:06:12.750Z,47.86
2019-05-26T10:08:39.902Z,46.23
2019-05-26T10:11:06.995Z,47.42
2019-05-26T10:13:34.120Z,46.47
2019-05-26T10:16:01.218Z,45.21
2019-05-26T10:18:28.306Z,43.21
2019-05-26T10:20:55.435Z,45.05
2019-05-26T10:23:22.504Z,43.94
2019-05-26T10:25:49.614Z,43.05
2019-05-26T10:28:16.654Z,43.46
2019-05-26T10:30:43.765Z,42.68
2019-05-26T10:33:10.838Z,43.17
2019-05-26T10:35:37.917Z,42.86
2019-05-26T10:38:05.020Z,42.53
2019-05-26T10:40:32.118Z,42.32
2019-05-26T10:42:59.200Z,42.04
2019-05-26T10:45:26.267Z,43.37
2019-05-26T10:47:53.335Z,42.86
2019-05-26T10:50:20.543Z,41.47
2019-05-26T10:52:47.651Z,40.26
2019-05-26T10:55:17.027Z,41.00
2019-05-26T10:57:44.147Z,40.62
2019-05-26T11:00:12.923Z,40.83
2019-05-26T11:02:40.017Z,39.65
2019-05-26T11:05:08.236Z,39.33
2019-05-26T11:07:35.326Z,39.76
2019-05-26T11:10:02.485Z,40.22
2019-05-26T11:12:29.587Z,40.26
2019-05-26T11:14:56.707Z,39.79
2019-05-26T11:17:23.787Z,39.76
2019-05-26T11:19:51.005Z,38.60
2019-05-26T11:22:18.124Z,38.74
2019-05-26T11:24:45.217Z,37.31
2019-05-26T11:27:13.587Z,34.80
2019-05-26T11:29:41.333Z,35.42
2019-05-26T11:32:08.420Z,33.70
2019-05-26T11:34:35.475Z,34.01
2019-05-26T11:37:02.576Z,33.43
2019-05-26T11:39:29.730Z,32.76
2019-05-26T11:42:10.551Z,32.65
2019-05-26T11:44:25.769Z,32.67
2019-05-26T11:46:52.866Z,32.20
2019-05-26T11:49:19.966Z,32.37
2019-05-26T11:51:47.093Z,33.16
2019-05-26T11:54:14.161Z,33.08
2019-05-26T11:56:41.266Z,32.05
2019-05-26T11:59:08.362Z,32.01
2019-05-26T12:01:35.458Z,30.73
2019-05-26T12:04:02.525Z,29.43
2019-05-26T12:06:29.630Z,31.31
2019-05-26T12:08:56.708Z,30.95
2019-05-26T12:11:23.806Z,32.00
2019-05-26T12:13:50.905Z,32.38
2019-05-26T12:16:18.036Z,30.92
2019-05-26T12:18:45.152Z,30.08
2019-05-26T12:21:12.251Z,30.11
2019-05-26T12:23:39.329Z,30.82
2019-05-26T12:26:06.458Z,31.77
2019-05-26T12:28:33.582Z,31.12
2019-05-26T12:31:00.696Z,31.68
2019-05-26T12:33:27.769Z,31.11
2019-05-26T12:35:54.907Z,30.29
2019-05-26T12:38:22.041Z,30.69
2019-05-26T12:40:49.102Z,30.16
2019-05-26T12:43:16.245Z,29.93
2019-05-26T12:45:43.294Z,28.27
2019-05-26T12:48:10.377Z,28.58
2019-05-26T12:50:37.552Z,29.30
2019-05-26T12:53:06.465Z,28.69
2019-05-26T12:55:33.563Z,29.71
2019-05-26T12:58:00.665Z,29.17
2019-05-26T13:00:27.752Z,27.46
2019-05-26T13:02:55.187Z,27.77
2019-05-26T13:05:22.263Z,28.26
2019-05-26T13:07:49.371Z,29.76
2019-05-26T13:10:17.319Z,29.34
2019-05-26T13:12:44.488Z,29.40
2019-05-26T13:15:13.278Z,30.15
2019-05-26T13:17:40.345Z,29.15
2019-05-26T13:20:08.172Z,29.13
2019-05-26T13:22:35.357Z,29.26
2019-05-26T13:25:02.702Z,28.72
2019-05-26T13:27:29.825Z,29.73
2019-05-26T13:29:56.920Z,29.68
2019-05-26T13:32:24.022Z,30.67
2019-05-26T13:34:51.110Z,29.80
2019-05-26T13:37:18.230Z,30.28
2019-05-26T13:39:45.323Z,31.33
2019-05-26T13:42:12.425Z,33.42
2019-05-26T13:44:39.496Z,33.97
2019-05-26T13:47:06.616Z,32.59
2019-05-26T13:49:33.742Z,32.45
2019-05-26T13:52:00.795Z,31.60
2019-05-26T13:54:27.889Z,30.97
2019-05-26T13:56:55.026Z,29.98
2019-05-26T13:59:22.118Z,29.21
2019-05-26T14:01:49.210Z,29.86
2019-05-26T14:04:16.311Z,29.78
2019-05-26T14:06:43.374Z,29.64
2019-05-26T14:09:10.565Z,28.69
2019-05-26T14:11:37.635Z,28.74
2019-05-26T14:14:04.832Z,27.88
2019-05-26T14:16:33.411Z,27.75
2019-05-26T14:19:01.604Z,28.46
2019-05-26T14:21:28.730Z,28.96
2019-05-26T14:23:55.814Z,28.60
2019-05-26T14:26:22.935Z,28.52
2019-05-26T14:28:50.017Z,28.72
2019-05-26T14:31:17.144Z,28.89
2019-05-26T14:33:44.256Z,28.16
2019-05-26T14:36:11.371Z,27.44
2019-05-26T14:38:43.344Z,27.23
2019-05-26T14:41:07.482Z,27.78
2019-05-26T14:43:34.569Z,28.33
2019-05-26T14:46:01.684Z,27.54
2019-05-26T14:48:28.790Z,27.89
2019-05-26T14:50:55.867Z,28.02
2019-05-26T14:53:22.952Z,27.90
2019-05-26T14:58:24.861Z,27.67
2019-05-26T15:00:51.962Z,27.67
2019-05-26T15:03:19.085Z,27.85
2019-05-26T15:05:46.164Z,27.73
2019-05-26T15:08:13.297Z,27.78
2019-05-26T15:10:40.352Z,27.12
2019-05-26T15:13:07.472Z,27.19
2019-05-26T15:15:35.198Z,26.72
2019-05-26T15:18:02.342Z,27.70
2019-05-26T15:20:29.421Z,27.88
2019-05-26T15:22:56.555Z,28.62
2019-05-26T15:25:23.611Z,28.01
2019-05-26T15:27:50.742Z,27.33
2019-05-26T15:32:57.340Z,27.37
2019-05-26T15:35:35.950Z,28.04
2019-05-26T15:38:03.064Z,28.55
2019-05-26T15:40:30.145Z,28.77
2019-05-26T15:42:57.236Z,28.57
2019-05-26T15:45:24.395Z,28.00
2019-05-26T15:47:51.483Z,28.05
2019-05-26T15:50:18.677Z,28.47
2019-05-26T15:52:45.825Z,28.87
2019-05-26T15:55:17.799Z,28.32
2019-05-26T15:57:44.883Z,27.93
2019-05-26T16:00:11.987Z,27.76
2019-05-26T16:02:39.045Z,26.77
2019-05-26T16:05:06.473Z,26.60
2019-05-26T16:07:33.590Z,27.00
2019-05-26T16:10:00.652Z,28.12
2019-05-26T16:12:27.745Z,29.39
2019-05-26T16:14:54.837Z,27.97
2019-05-26T16:17:21.966Z,28.07
2019-05-26T16:19:49.029Z,28.03
2019-05-26T16:22:16.141Z,29.23
2019-05-26T16:24:43.203Z,29.06
2019-05-26T16:27:19.249Z,29.24
2019-05-26T16:29:39.292Z,28.34
2019-05-26T16:32:06.381Z,28.56
2019-05-26T16:34:33.480Z,28.51
2019-05-26T16:37:00.587Z,29.11
2019-05-26T16:39:36.468Z,30.81
2019-05-26T16:42:03.132Z,32.13
2019-05-26T16:44:30.205Z,31.89
2019-05-26T16:46:57.279Z,32.40
2019-05-26T16:49:24.391Z,32.60
2019-05-26T16:51:51.476Z,32.95
2019-05-26T16:54:18.581Z,33.24
2019-05-26T16:56:45.666Z,32.99
2019-05-26T16:59:12.766Z,32.49
2019-05-26T17:01:39.846Z,32.45
2019-05-26T17:04:06.912Z,31.59
2019-05-26T17:06:33.979Z,31.62
2019-05-26T17:09:01.050Z,31.68
2019-05-26T17:11:28.153Z,31.37
2019-05-26T17:13:55.244Z,31.49
2019-05-26T17:16:22.363Z,32.02
2019-05-26T17:18:49.525Z,32.37
2019-05-26T17:21:16.592Z,33.50
2019-05-26T17:23:43.707Z,34.11
2019-05-26T17:26:10.799Z,34.18
2019-05-26T17:28:37.867Z,34.44
2019-05-26T17:31:05.014Z,34.50
2019-05-26T17:33:32.103Z,34.79
2019-05-26T17:35:59.224Z,35.33
2019-05-26T17:38:26.311Z,35.71
2019-05-26T17:40:53.405Z,36.18
2019-05-26T17:43:20.481Z,36.32
2019-05-26T17:45:47.605Z,36.59
2019-05-26T17:48:14.703Z,36.28
2019-05-26T17:50:41.806Z,36.01
2019-05-26T17:53:08.918Z,36.26
2019-05-26T17:55:36.007Z,38.00
2019-05-26T17:58:03.139Z,38.89
2019-05-26T18:00:30.268Z,39.40
2019-05-26T18:02:57.360Z,39.78
2019-05-26T18:05:24.436Z,40.30
2019-05-26T18:07:51.526Z,40.82
2019-05-26T18:10:19.456Z,41.59
2019-05-26T18:12:46.560Z,41.56
2019-05-26T18:15:13.746Z,41.97
2019-05-26T18:17:46.871Z,43.19
2019-05-26T18:20:10.005Z,44.49
2019-05-26T18:22:37.117Z,45.67
2019-05-26T18:25:04.472Z,46.61
2019-05-26T18:27:31.582Z,47.57
2019-05-26T18:29:58.665Z,48.93
2019-05-26T18:32:25.767Z,50.07
2019-05-26T18:34:52.884Z,50.90
2019-05-26T18:37:19.958Z,51.73
2019-05-26T18:39:47.057Z,52.31
2019-05-26T18:42:14.021Z,52.58
2019-05-26T18:44:41.100Z,52.93
2019-05-26T18:47:08.044Z,53.61
2019-05-26T18:49:35.113Z,54.28
2019-05-26T18:52:02.087Z,54.53
2019-05-26T18:54:29.093Z,55.47
2019-05-26T18:56:56.108Z,55.77
2019-05-26T18:59:23.241Z,56.44
2019-05-26T19:01:50.283Z,56.90
2019-05-26T19:04:17.406Z,57.19
2019-05-26T19:06:44.450Z,56.50
2019-05-26T19:09:11.559Z,56.61
2019-05-26T19:11:38.654Z,57.04
2019-05-26T19:14:05.762Z,57.40
2019-05-26T19:16:32.876Z,57.57
2019-05-26T19:18:59.999Z,57.71
2019-05-26T19:21:27.126Z,57.87
2019-05-26T19:23:54.210Z,57.99
2019-05-26T19:26:21.317Z,59.02
2019-05-26T19:28:48.362Z,59.33
2019-05-26T19:31:15.457Z,58.87
2019-05-26T19:33:42.594Z,59.31
2019-05-26T19:36:09.964Z,59.84
2019-05-26T19:38:37.003Z,60.00
2019-05-26T19:41:04.101Z,60.11
2019-05-26T19:43:31.183Z,60.35
2019-05-26T19:45:58.272Z,60.73
2019-05-26T19:48:35.886Z,61.22
2019-05-26T19:51:04.280Z,61.68
2019-05-26T19:53:31.371Z,62.60
2019-05-26T19:55:58.452Z,63.38
2019-05-26T19:58:28.535Z,63.51
2019-05-26T20:00:54.557Z,63.84
2019-05-26T20:03:21.681Z,63.35
2019-05-26T20:05:48.778Z,62.95
2019-05-26T20:08:15.830Z,62.65
2019-05-26T20:10:42.918Z,62.61
2019-05-26T20:13:09.991Z,62.70
2019-05-26T20:15:37.090Z,62.74
2019-05-26T20:18:04.388Z,62.78
2019-05-26T20:20:31.647Z,63.54
2019-05-26T20:22:58.736Z,64.30
2019-05-26T20:25:26.487Z,64.80
2019-05-26T20:27:53.569Z,64.82
2019-05-26T20:30:22.239Z,64.91
2019-05-26T20:32:55.725Z,65.02
2019-05-26T20:35:22.808Z,65.40
2019-05-26T20:37:49.921Z,65.34
2019-05-26T20:40:17.093Z,65.50
2019-05-26T20:42:44.214Z,65.41
2019-05-26T20:45:52.194Z,65.50
2019-05-26T20:48:19.261Z,65.44
2019-05-26T20:50:46.336Z,65.65
2019-05-26T20:53:13.442Z,65.89
2019-05-26T20:55:40.569Z,66.18
2019-05-26T20:58:07.675Z,66.26
2019-05-26T21:00:34.785Z,66.44
2019-05-26T21:03:01.869Z,66.51
2019-05-26T21:05:28.968Z,66.89
2019-05-26T21:07:56.082Z,67.26
2019-05-26T21:10:23.167Z,67.43
2019-05-26T21:12:50.266Z,67.52
2019-05-26T21:15:17.427Z,67.70
2019-05-26T21:17:44.502Z,67.78
2019-05-26T21:20:11.961Z,68.11
2019-05-26T21:22:39.113Z,68.21
2019-05-26T21:25:06.891Z,68.20
2019-05-26T21:27:33.988Z,68.24
2019-05-26T21:30:01.063Z,68.32
2019-05-26T21:32:31.234Z,68.50
2019-05-26T21:34:57.195Z,68.58
2019-05-26T21:37:24.317Z,68.82
2019-05-26T21:39:51.424Z,68.88
2019-05-26T21:42:18.529Z,68.96
2019-05-26T21:44:45.625Z,69.02
2019-05-26T21:47:12.730Z,69.13
2019-05-26T21:49:39.824Z,69.28
2019-05-26T21:52:06.965Z,69.51
2019-05-26T21:54:34.115Z,69.67
2019-05-26T21:57:01.205Z,69.85
2019-05-26T21:59:28.384Z,69.91
2019-05-26T22:01:55.414Z,69.91
2019-05-26T22:04:22.513Z,69.99
2019-05-26T22:06:49.659Z,69.86
2019-05-26T22:09:16.729Z,69.86
2019-05-26T22:11:43.826Z,70.28
2019-05-26T22:14:10.908Z,70.44
2019-05-26T22:16:37.987Z,70.50
2019-05-26T22:19:05.139Z,70.54
2019-05-26T22:21:32.248Z,70.66
2019-05-26T22:23:59.340Z,70.73
2019-05-26T22:26:26.453Z,70.68
2019-05-26T22:28:53.581Z,70.58
2019-05-26T22:31:20.657Z,70.68
2019-05-26T22:33:47.761Z,70.76
2019-05-26T22:36:14.871Z,70.71
2019-05-26T22:38:41.971Z,70.71
2019-05-26T22:41:09.069Z,71.19
2019-05-26T22:43:36.152Z,71.19
2019-05-26T22:46:03.241Z,71.39
2019-05-26T22:48:30.350Z,71.69
2019-05-26T22:50:57.452Z,72.15
2019-05-26T22:53:24.559Z,72.23
2019-05-26T22:55:51.647Z,72.54
2019-05-26T22:58:18.785Z,73.03
2019-05-26T23:00:45.885Z,73.05
2019-05-26T23:03:12.951Z,72.93
2019-05-26T23:05:40.081Z,73.29
2019-05-26T23:08:07.149Z,73.62
2019-05-26T23:10:34.249Z,73.58
2019-05-26T23:13:01.351Z,73.42
2019-05-26T23:15:28.432Z,73.22
2019-05-26T23:17:55.492Z,73.18
2019-05-26T23:20:22.625Z,73.55
2019-05-26T23:22:49.700Z,73.55
2019-05-26T23:25:17.656Z,73.15
2019-05-26T23:27:44.759Z,73.20
2019-05-26T23:30:11.856Z,74.02
2019-05-26T23:32:38.932Z,74.02
2019-05-26T23:35:06.027Z,74.06
2019-05-26T23:37:33.154Z,74.06
2019-05-26T23:40:00.215Z,73.91
2019-05-26T23:42:27.308Z,73.82
2019-05-26T23:44:54.397Z,73.94
2019-05-26T23:47:21.482Z,74.07
2019-05-26T23:49:48.591Z,74.31
2019-05-26T23:52:19.191Z,74.50
2019-05-26T23:54:44.674Z,74.38
2019-05-26T23:57:11.780Z,74.38
2019-05-26T23:59:38.845Z,74.48
